createdAt,value
2023-01-30T00:01:35.356Z,5.43
2023-01-30T00:06:37.046Z,5.80
2023-01-30T00:11:38.545Z,4.93
2023-01-30T00:16:40.135Z,4.53
2023-01-30T00:21:41.638Z,5.10
2023-01-30T00:26:43.202Z,4.75
2023-01-30T00:31:44.721Z,4.72
2023-01-30T00:36:49.362Z,4.50
2023-01-30T00:42:13.628Z,4.32
2023-01-30T00:47:15.289Z,4.28
2023-01-30T00:52:16.756Z,4.68
2023-01-30T00:57:18.365Z,4.78
2023-01-30T01:02:20.421Z,4.50
2023-01-30T01:07:22.150Z,4.28
2023-01-30T01:12:23.881Z,5.07
2023-01-30T01:17:25.425Z,4.53
2023-01-30T01:22:26.912Z,3.67
2023-01-30T01:27:29.204Z,4.50
2023-01-30T01:32:30.759Z,4.35
2023-01-30T01:37:32.324Z,4.47
2023-01-30T01:42:36.360Z,4.45
2023-01-30T01:47:45.301Z,4.38
2023-01-30T01:52:52.045Z,3.60
2023-01-30T01:58:09.760Z,4.50
2023-01-30T02:03:17.339Z,4.47
2023-01-30T02:08:32.387Z,4.05
2023-01-30T02:13:33.966Z,4.53
2023-01-30T02:18:38.840Z,5.25
2023-01-30T02:23:58.544Z,5.13
2023-01-30T02:29:03.031Z,4.80
2023-01-30T02:34:28.954Z,4.50
2023-01-30T02:39:47.460Z,4.55
2023-01-30T02:45:21.167Z,3.42
2023-01-30T02:50:46.091Z,5.13
2023-01-30T02:55:47.555Z,4.28
2023-01-30T03:01:27.286Z,4.25
2023-01-30T03:06:56.818Z,5.10
2023-01-30T03:12:16.603Z,5.13
2023-01-30T03:17:21.560Z,5.05
2023-01-30T03:22:23.475Z,5.13
2023-01-30T03:27:25.040Z,4.95
2023-01-30T03:32:26.526Z,5.35
2023-01-30T03:37:28.087Z,4.70
2023-01-30T03:42:29.628Z,4.53
2023-01-30T03:47:31.106Z,4.65
2023-01-30T03:52:35.059Z,5.43
2023-01-30T03:57:36.663Z,4.43
2023-01-30T04:02:38.690Z,4.57
2023-01-30T04:07:40.328Z,3.78
2023-01-30T04:12:42.781Z,4.32
2023-01-30T04:17:44.832Z,4.63
2023-01-30T04:22:46.510Z,5.05
2023-01-30T04:27:47.986Z,5.03
2023-01-30T04:32:49.445Z,4.15
2023-01-30T04:37:50.979Z,4.15
2023-01-30T04:42:52.449Z,3.58
2023-01-30T04:47:54.010Z,5.22
2023-01-30T04:52:55.547Z,3.53
2023-01-30T04:57:57.234Z,4.25
2023-01-30T05:02:58.716Z,5.40
2023-01-30T05:08:00.417Z,7.15
2023-01-30T05:13:06.327Z,4.85
2023-01-30T05:18:07.919Z,4.75
2023-01-30T05:23:09.540Z,5.65
2023-01-30T05:28:11.022Z,4.60
2023-01-30T05:33:12.545Z,4.47
2023-01-30T05:38:14.154Z,3.97
2023-01-30T05:43:15.685Z,4.25
2023-01-30T05:48:17.147Z,4.45
2023-01-30T05:53:19.694Z,4.00
2023-01-30T05:58:21.172Z,4.50
2023-01-30T06:03:22.637Z,4.65
2023-01-30T06:08:24.662Z,4.43
2023-01-30T06:13:26.171Z,4.07
2023-01-30T06:18:28.223Z,3.92
2023-01-30T06:23:29.806Z,3.97
2023-01-30T06:28:31.391Z,4.00
2023-01-30T06:33:32.962Z,4.70
2023-01-30T06:38:34.564Z,5.80
2023-01-30T06:43:36.081Z,5.78
2023-01-30T06:48:37.643Z,5.63
2023-01-30T06:53:41.222Z,5.18
2023-01-30T06:58:42.979Z,5.93
2023-01-30T07:03:44.651Z,6.15
2023-01-30T07:08:46.313Z,5.40
2023-01-30T07:13:47.858Z,5.57
2023-01-30T07:18:49.366Z,5.13
2023-01-30T07:23:50.953Z,5.28
2023-01-30T07:28:52.542Z,4.90
2023-01-30T07:33:54.109Z,4.68
2023-01-30T07:38:55.677Z,4.88
2023-01-30T07:43:57.231Z,4.00
2023-01-30T07:48:59.859Z,4.63
2023-01-30T07:54:02.100Z,5.47
2023-01-30T07:59:05.621Z,6.25
2023-01-30T08:04:07.197Z,5.65
2023-01-30T08:09:08.824Z,5.25
2023-01-30T08:14:11.122Z,5.07
2023-01-30T08:19:12.729Z,5.15
2023-01-30T08:24:14.286Z,4.97
2023-01-30T08:29:15.850Z,5.05
2023-01-30T08:34:17.410Z,4.90
2023-01-30T08:39:19.091Z,4.43
2023-01-30T08:44:20.674Z,4.93
2023-01-30T08:49:22.219Z,4.90
2023-01-30T08:54:23.786Z,5.47
2023-01-30T08:59:25.319Z,5.38
2023-01-30T09:04:29.565Z,5.20
2023-01-30T09:09:31.040Z,4.60
2023-01-30T09:14:32.520Z,5.47
2023-01-30T09:19:36.073Z,5.07
2023-01-30T09:24:37.563Z,5.35
2023-01-30T09:29:39.088Z,5.05
2023-01-30T09:34:40.567Z,4.97
2023-01-30T09:39:42.168Z,5.65
2023-01-30T09:45:00.174Z,5.80
2023-01-30T09:55:18.193Z,6.30
2023-01-30T10:00:35.649Z,5.10
2023-01-30T10:06:02.345Z,6.28
2023-01-30T10:11:25.071Z,5.53
2023-01-30T10:16:41.600Z,5.45
2023-01-30T10:21:54.548Z,5.95
2023-01-30T10:26:57.411Z,5.75
2023-01-30T10:32:04.840Z,4.97
2023-01-30T10:37:29.746Z,5.70
2023-01-30T10:42:58.353Z,5.63
2023-01-30T10:48:43.292Z,5.47
2023-01-30T10:54:34.848Z,6.20
2023-01-30T10:59:54.172Z,5.93
2023-01-30T11:05:01.066Z,6.80
2023-01-30T11:10:02.673Z,6.63
2023-01-30T11:15:04.498Z,5.80
2023-01-30T11:20:19.242Z,6.97
2023-01-30T11:25:22.892Z,6.07
2023-01-30T11:30:29.153Z,5.95
2023-01-30T11:35:31.408Z,6.53
2023-01-30T11:40:38.189Z,6.72
2023-01-30T11:45:44.507Z,6.80
2023-01-30T11:50:50.267Z,5.90
2023-01-30T11:56:03.783Z,5.70
2023-01-30T12:01:10.804Z,6.43
2023-01-30T12:06:20.684Z,6.28
2023-01-30T12:11:27.206Z,7.60
2023-01-30T12:16:48.462Z,5.90
2023-01-30T12:22:02.317Z,5.70
2023-01-30T12:27:16.875Z,6.18
2023-01-30T12:32:22.021Z,4.78
2023-01-30T12:37:45.829Z,5.78
2023-01-30T12:42:59.362Z,6.32
2023-01-30T12:48:06.953Z,5.90
2023-01-30T12:53:39.907Z,4.78
2023-01-30T12:58:46.770Z,5.68
2023-01-30T13:04:13.817Z,5.20
2023-01-30T13:09:36.491Z,5.47
2023-01-30T13:14:54.192Z,5.30
2023-01-30T13:20:32.868Z,6.22
2023-01-30T13:30:40.661Z,5.25
2023-01-30T13:35:49.954Z,5.95
2023-01-30T13:40:56.687Z,4.65
2023-01-30T13:46:03.350Z,5.10
2023-01-30T13:51:21.064Z,5.50
2023-01-30T13:56:57.978Z,5.95
2023-01-30T14:01:59.521Z,4.25
2023-01-30T14:07:22.770Z,5.47
2023-01-30T14:12:27.430Z,4.95
2023-01-30T14:17:29.915Z,6.63
2023-01-30T14:22:40.866Z,5.53
2023-01-30T14:27:42.468Z,5.22
2023-01-30T14:32:55.442Z,5.30
2023-01-30T14:38:12.353Z,5.75
2023-01-30T14:43:16.352Z,5.50
2023-01-30T14:48:39.720Z,6.13
2023-01-30T14:53:52.200Z,6.22
2023-01-30T14:59:03.142Z,5.35
2023-01-30T15:04:05.181Z,6.05
2023-01-30T15:09:07.690Z,4.20
2023-01-30T15:14:22.174Z,4.88
2023-01-30T15:19:49.035Z,5.07
2023-01-30T15:24:56.464Z,3.95
2023-01-30T15:30:12.521Z,4.88
2023-01-30T15:35:17.219Z,5.07
2023-01-30T15:40:28.283Z,5.97
2023-01-30T15:45:35.794Z,4.47
2023-01-30T15:50:37.835Z,4.78
2023-01-30T15:55:42.760Z,5.25
2023-01-30T16:00:47.593Z,6.68
2023-01-30T16:05:51.763Z,5.65
2023-01-30T16:10:53.502Z,6.07
2023-01-30T16:16:08.021Z,5.72
2023-01-30T16:21:31.669Z,5.80
2023-01-30T16:26:36.888Z,6.15
2023-01-30T16:31:40.127Z,6.32
2023-01-30T16:36:42.198Z,5.95
2023-01-30T16:41:44.669Z,5.00
2023-01-30T16:46:46.177Z,6.65
2023-01-30T16:51:49.266Z,5.30
2023-01-30T16:56:55.447Z,5.38
2023-01-30T17:01:59.207Z,5.25
2023-01-30T17:07:04.191Z,5.78
2023-01-30T17:12:36.977Z,5.03
2023-01-30T17:17:42.186Z,4.90
2023-01-30T17:22:46.110Z,3.83
2023-01-30T17:27:48.204Z,5.53
2023-01-30T17:32:52.611Z,5.47
2023-01-30T17:38:04.778Z,4.80
2023-01-30T17:43:07.367Z,4.88
2023-01-30T17:48:11.991Z,4.93
2023-01-30T17:53:13.516Z,5.35
2023-01-30T17:58:19.580Z,5.43
2023-01-30T18:03:21.154Z,5.78
2023-01-30T18:08:22.772Z,4.93
2023-01-30T18:13:24.319Z,4.70
2023-01-30T18:18:26.743Z,5.78
2023-01-30T18:23:28.271Z,5.00
2023-01-30T18:28:29.777Z,4.72
2023-01-30T18:33:35.939Z,4.45
2023-01-30T18:38:37.466Z,5.05
2023-01-30T18:43:39.169Z,6.28
2023-01-30T18:48:41.650Z,5.45
2023-01-30T18:53:43.884Z,4.95
2023-01-30T18:58:45.400Z,4.75
2023-01-30T19:03:46.955Z,5.22
2023-01-30T19:08:48.606Z,5.88
2023-01-30T19:13:50.185Z,5.07
2023-01-30T19:18:53.167Z,4.20
2023-01-30T19:23:54.790Z,4.97
2023-01-30T19:28:56.397Z,3.58
2023-01-30T19:34:05.035Z,4.40
2023-01-30T19:39:06.916Z,4.53
2023-01-30T19:44:08.840Z,4.60
2023-01-30T19:49:11.537Z,4.63
2023-01-30T19:54:13.150Z,4.22
2023-01-30T19:59:16.571Z,4.20
2023-01-30T20:04:18.159Z,4.28
2023-01-30T20:09:19.764Z,4.53
2023-01-30T20:14:21.292Z,4.10
2023-01-30T20:19:22.863Z,4.53
2023-01-30T20:24:24.385Z,5.10
2023-01-30T20:29:26.024Z,4.32
2023-01-30T20:34:27.679Z,4.88
2023-01-30T20:39:29.526Z,4.45
2023-01-30T20:44:31.125Z,5.10
2023-01-30T20:49:32.735Z,3.58
2023-01-30T20:54:34.300Z,4.95
2023-01-30T20:59:36.268Z,4.60
2023-01-30T21:04:38.393Z,4.45
2023-01-30T21:09:39.933Z,3.95
2023-01-30T21:14:41.530Z,4.00
2023-01-30T21:19:43.622Z,3.67
2023-01-30T21:24:45.241Z,4.22
2023-01-30T21:29:46.927Z,3.88
2023-01-30T21:34:48.407Z,5.10
2023-01-30T21:40:08.371Z,3.50
2023-01-30T21:45:09.987Z,3.67
2023-01-30T21:50:11.568Z,3.58
2023-01-30T21:55:13.068Z,4.20
2023-01-30T22:00:14.871Z,4.18
2023-01-30T22:05:16.396Z,3.35
2023-01-30T22:10:17.958Z,3.10
2023-01-30T22:15:22.688Z,3.92
2023-01-30T22:20:24.184Z,3.08
2023-01-30T22:25:25.773Z,4.00
2023-01-30T22:30:27.341Z,5.07
2023-01-30T22:35:29.245Z,3.53
2023-01-30T22:40:30.863Z,3.33
2023-01-30T22:45:35.033Z,3.08
2023-01-30T22:50:37.037Z,3.72
2023-01-30T22:55:38.634Z,3.65
2023-01-30T23:00:40.393Z,3.33
2023-01-30T23:05:41.915Z,2.83
2023-01-30T23:10:43.483Z,3.28
2023-01-30T23:15:46.796Z,3.33
2023-01-30T23:20:48.326Z,3.10
2023-01-30T23:25:49.882Z,2.90
2023-01-30T23:30:51.485Z,3.00
2023-01-30T23:35:53.035Z,3.60
2023-01-30T23:41:03.648Z,3.47
2023-01-30T23:46:20.586Z,3.35
2023-01-30T23:51:24.949Z,3.00
2023-01-30T23:56:29.048Z,3.90
